createdAt,value
2022-08-10T00:00:49.167Z,0.00
2022-08-10T00:01:51.236Z,0.00
2022-08-10T00:02:49.099Z,0.00
2022-08-10T00:03:49.068Z,0.00
2022-08-10T00:04:49.095Z,0.00
2022-08-10T00:05:52.565Z,0.00
2022-08-10T00:06:48.997Z,0.00
2022-08-10T00:07:48.978Z,0.00
2022-08-10T00:08:48.926Z,0.00
2022-08-10T00:09:50.612Z,0.00
2022-08-10T00:10:48.877Z,0.00
2022-08-10T00:11:48.849Z,0.00
2022-08-10T00:12:54.348Z,0.00
2022-08-10T00:13:48.833Z,0.00
2022-08-10T00:14:48.834Z,0.00
2022-08-10T00:15:53.422Z,0.00
2022-08-10T00:16:48.711Z,0.00
2022-08-10T00:17:48.661Z,0.00
2022-08-10T00:18:48.638Z,0.00
2022-08-10T00:20:04.078Z,0.00
2022-08-10T00:20:48.627Z,0.00
2022-08-10T00:21:48.542Z,0.00
2022-08-10T00:22:52.846Z,0.00
2022-08-10T00:23:48.483Z,0.00
2022-08-10T00:24:48.458Z,0.00
2022-08-10T00:25:48.507Z,0.00
2022-08-10T00:27:52.007Z,0.00
2022-08-10T00:28:02.637Z,0.00
2022-08-10T00:28:48.343Z,0.00
2022-08-10T00:29:48.317Z,0.00
2022-08-10T00:30:48.336Z,0.00
2022-08-10T00:31:56.036Z,0.00
2022-08-10T00:32:48.222Z,0.00
2022-08-10T00:33:48.195Z,0.00
2022-08-10T00:34:48.163Z,0.00
2022-08-10T00:35:48.138Z,0.00
2022-08-10T00:36:48.158Z,0.00
2022-08-10T00:37:56.422Z,0.00
2022-08-10T00:38:48.046Z,0.00
2022-08-10T00:39:48.062Z,0.00
2022-08-10T00:40:47.982Z,0.00
2022-08-10T00:42:06.482Z,0.00
2022-08-10T00:42:47.984Z,0.00
2022-08-10T00:43:47.896Z,0.00
2022-08-10T00:44:47.867Z,0.00
2022-08-10T00:45:58.985Z,0.00
2022-08-10T00:46:48.434Z,0.00
2022-08-10T00:47:47.855Z,0.00
2022-08-10T00:48:47.753Z,0.00
2022-08-10T00:49:47.718Z,0.00
2022-08-10T00:50:47.687Z,0.00
2022-08-10T00:51:48.877Z,0.00
2022-08-10T00:52:47.710Z,0.00
2022-08-10T00:53:47.598Z,0.00
2022-08-10T00:54:47.571Z,0.00
2022-08-10T00:57:12.665Z,0.00
2022-08-10T00:57:16.539Z,0.00
2022-08-10T00:57:54.931Z,0.00
2022-08-10T00:58:47.507Z,0.00
2022-08-10T00:59:59.021Z,0.00
2022-08-10T01:00:47.399Z,0.00
2022-08-10T01:02:10.970Z,0.00
2022-08-10T01:02:47.499Z,0.00
2022-08-10T01:04:58.687Z,0.00
2022-08-10T01:05:00.050Z,0.00
2022-08-10T01:05:51.458Z,0.00
2022-08-10T01:06:47.243Z,0.00
2022-08-10T01:07:47.198Z,0.00
2022-08-10T01:08:47.222Z,0.00
2022-08-10T01:09:56.945Z,0.00
2022-08-10T01:10:47.096Z,0.00
2022-08-10T01:12:37.588Z,0.00
2022-08-10T01:12:47.308Z,0.00
2022-08-10T01:13:47.003Z,0.00
2022-08-10T01:14:47.038Z,0.00
2022-08-10T01:15:46.949Z,0.00
2022-08-10T01:16:46.922Z,0.00
2022-08-10T01:17:49.936Z,0.00
2022-08-10T01:18:46.861Z,0.00
2022-08-10T01:19:46.885Z,0.00
2022-08-10T01:20:46.857Z,0.00
2022-08-10T01:21:54.055Z,0.00
2022-08-10T01:22:46.742Z,0.00
2022-08-10T01:23:46.704Z,0.00
2022-08-10T01:24:46.676Z,0.00
2022-08-10T01:26:11.079Z,0.00
2022-08-10T01:26:46.621Z,0.00
2022-08-10T01:27:46.589Z,0.00
2022-08-10T01:28:46.556Z,0.00
2022-08-10T01:29:46.548Z,0.00
2022-08-10T01:30:46.561Z,0.00
2022-08-10T01:31:46.506Z,0.00
2022-08-10T01:32:46.437Z,0.00
2022-08-10T01:33:58.167Z,0.00
2022-08-10T01:34:46.379Z,0.00
2022-08-10T01:35:46.405Z,0.00
2022-08-10T01:36:46.371Z,0.00
2022-08-10T01:37:51.950Z,0.00
2022-08-10T01:38:46.263Z,0.00
2022-08-10T01:39:46.300Z,0.00
2022-08-10T01:40:46.213Z,0.00
2022-08-10T01:41:47.172Z,0.00
2022-08-10T01:42:46.154Z,0.00
2022-08-10T01:43:46.108Z,0.00
2022-08-10T01:44:46.078Z,0.00
2022-08-10T01:45:46.218Z,0.00
2022-08-10T01:46:46.089Z,0.00
2022-08-10T01:47:45.993Z,0.00
2022-08-10T01:48:45.961Z,0.00
2022-08-10T01:49:45.926Z,0.00
2022-08-10T01:50:59.985Z,0.00
2022-08-10T01:51:45.933Z,0.00
2022-08-10T01:52:45.897Z,0.00
2022-08-10T01:53:45.800Z,0.00
2022-08-10T01:54:46.721Z,0.00
2022-08-10T01:55:45.746Z,0.00
2022-08-10T01:56:45.719Z,0.00
2022-08-10T01:57:45.743Z,0.00
2022-08-10T01:58:45.708Z,0.00
2022-08-10T01:59:58.503Z,0.00
2022-08-10T02:00:45.608Z,0.00
2022-08-10T02:01:45.609Z,0.00
2022-08-10T02:02:45.619Z,0.00
2022-08-10T02:04:03.702Z,0.00
2022-08-10T02:04:45.468Z,0.00
2022-08-10T02:05:45.439Z,0.00
2022-08-10T02:06:45.420Z,0.00
2022-08-10T02:07:45.381Z,0.00
2022-08-10T02:08:45.411Z,0.00
2022-08-10T02:09:45.317Z,0.00
2022-08-10T02:10:45.286Z,0.00
2022-08-10T02:11:57.529Z,0.00
2022-08-10T02:12:45.231Z,0.00
2022-08-10T02:13:45.256Z,0.00
2022-08-10T02:14:45.228Z,0.00
2022-08-10T02:16:01.832Z,0.00
2022-08-10T02:16:45.158Z,0.00
2022-08-10T02:18:00.868Z,0.00
2022-08-10T02:18:45.048Z,0.00
2022-08-10T02:19:45.070Z,0.00
2022-08-10T02:20:44.993Z,0.00
2022-08-10T02:22:37.010Z,0.00
2022-08-10T02:22:44.920Z,0.00
2022-08-10T02:23:44.901Z,0.00
2022-08-10T02:24:44.919Z,0.00
2022-08-10T02:25:44.831Z,0.00
2022-08-10T02:26:44.799Z,0.00
2022-08-10T02:27:44.792Z,0.00
2022-08-10T02:28:44.740Z,0.00
2022-08-10T02:29:44.767Z,0.00
2022-08-10T02:30:44.678Z,0.00
2022-08-10T02:31:44.645Z,0.00
2022-08-10T02:32:44.722Z,0.00
2022-08-10T02:33:45.568Z,0.00
2022-08-10T02:34:44.557Z,0.00
2022-08-10T02:35:55.371Z,0.00
2022-08-10T02:36:44.496Z,0.00
2022-08-10T02:37:44.464Z,0.00
2022-08-10T02:38:58.822Z,0.00
2022-08-10T02:39:44.459Z,0.00
2022-08-10T02:45:15.453Z,0.00
2022-08-10T02:45:15.617Z,0.00
2022-08-10T02:45:15.845Z,0.00
2022-08-10T02:45:19.468Z,0.00
2022-08-10T02:45:23.047Z,0.00
2022-08-10T02:45:44.217Z,0.00
2022-08-10T02:46:44.637Z,0.00
2022-08-10T02:47:50.977Z,0.00
2022-08-10T02:48:44.128Z,0.00
2022-08-10T02:49:44.097Z,0.00
2022-08-10T02:50:44.065Z,0.00
2022-08-10T02:52:08.009Z,0.00
2022-08-10T02:52:44.006Z,0.00
2022-08-10T02:53:55.344Z,0.00
2022-08-10T02:54:43.996Z,0.00
2022-08-10T02:55:43.918Z,0.00
2022-08-10T02:56:43.882Z,0.00
2022-08-10T02:58:13.327Z,0.00
2022-08-10T02:58:43.822Z,4.00
2022-08-10T02:59:43.794Z,4.00
2022-08-10T03:00:43.816Z,0.00
2022-08-10T03:01:43.722Z,0.00
2022-08-10T03:02:43.752Z,4.00
2022-08-10T03:03:43.664Z,4.00
2022-08-10T03:04:55.743Z,0.00
2022-08-10T03:05:43.720Z,4.00
2022-08-10T03:06:43.777Z,4.00
2022-08-10T03:07:45.089Z,8.00
2022-08-10T03:08:43.590Z,4.00
2022-08-10T03:09:43.483Z,4.00
2022-08-10T03:10:43.454Z,8.00
2022-08-10T03:12:37.426Z,8.00
2022-08-10T03:12:43.383Z,12.00
2022-08-10T03:13:43.357Z,12.00
2022-08-10T03:14:43.380Z,12.00
2022-08-10T03:15:43.292Z,16.00
2022-08-10T03:16:43.260Z,20.00
2022-08-10T03:17:57.213Z,20.00
2022-08-10T03:18:43.233Z,20.00
2022-08-10T03:20:35.960Z,24.00
2022-08-10T03:20:43.152Z,32.00
2022-08-10T03:21:43.109Z,32.00
2022-08-10T03:22:43.078Z,40.00
2022-08-10T03:23:43.053Z,44.00
2022-08-10T03:24:43.081Z,52.00
2022-08-10T03:25:52.966Z,56.00
2022-08-10T03:26:43.012Z,64.00
2022-08-10T03:27:42.970Z,76.00
2022-08-10T03:28:42.889Z,84.00
2022-08-10T03:30:32.339Z,92.00
2022-08-10T03:30:42.885Z,104.00
2022-08-10T03:31:42.842Z,116.00
2022-08-10T03:32:42.778Z,128.00
2022-08-10T03:33:42.737Z,144.00
2022-08-10T03:34:42.703Z,160.00
2022-08-10T03:35:42.729Z,176.00
2022-08-10T03:36:45.160Z,192.00
2022-08-10T03:37:42.611Z,208.00
2022-08-10T03:38:42.579Z,232.00
2022-08-10T03:39:42.609Z,252.00
2022-08-10T03:40:45.752Z,272.00
2022-08-10T03:41:47.602Z,296.00
2022-08-10T03:42:42.457Z,316.00
2022-08-10T03:43:42.431Z,340.00
2022-08-10T03:44:43.628Z,368.00
2022-08-10T03:45:54.509Z,396.00
2022-08-10T03:46:42.380Z,428.00
2022-08-10T03:47:42.298Z,456.00
2022-08-10T03:48:48.593Z,488.00
2022-08-10T03:49:42.232Z,528.00
2022-08-10T03:50:50.930Z,564.00
2022-08-10T03:51:42.245Z,600.00
2022-08-10T03:52:42.159Z,640.00
2022-08-10T03:54:06.192Z,680.00
2022-08-10T03:54:42.082Z,720.00
2022-08-10T03:56:29.056Z,760.00
2022-08-10T03:56:42.018Z,800.00
2022-08-10T03:57:49.562Z,848.00
2022-08-10T03:58:41.984Z,896.00
2022-08-10T03:59:41.923Z,944.00
2022-08-10T04:00:41.929Z,996.00
2022-08-10T04:02:52.387Z,1044.00
2022-08-10T04:02:52.750Z,1092.00
2022-08-10T04:03:41.802Z,1132.00
2022-08-10T04:04:41.821Z,1180.00
2022-08-10T04:05:41.737Z,1256.00
2022-08-10T04:06:41.712Z,1336.00
2022-08-10T04:07:41.675Z,1348.00
2022-08-10T04:08:41.702Z,1372.00
2022-08-10T04:09:53.117Z,1452.00
2022-08-10T04:10:41.579Z,1548.00
2022-08-10T04:11:41.551Z,1648.00
2022-08-10T04:12:41.523Z,1760.00
2022-08-10T04:13:41.549Z,1948.00
2022-08-10T04:14:49.420Z,2128.00
2022-08-10T04:15:41.428Z,2364.00
2022-08-10T04:16:41.393Z,2412.00
2022-08-10T04:18:02.988Z,2476.00
2022-08-10T04:18:41.337Z,2576.00
2022-08-10T04:19:41.363Z,2620.00
2022-08-10T04:20:41.276Z,2644.00
2022-08-10T04:21:41.243Z,2800.00
2022-08-10T04:22:41.991Z,2880.00
2022-08-10T04:23:41.176Z,2576.00
2022-08-10T04:24:41.199Z,2540.00
2022-08-10T04:25:41.119Z,2308.00
2022-08-10T04:26:41.081Z,2240.00
2022-08-10T04:27:41.053Z,2248.00
2022-08-10T04:28:41.024Z,2180.00
2022-08-10T04:29:41.049Z,2292.00
2022-08-10T04:30:41.011Z,2232.00
2022-08-10T04:31:41.462Z,2224.00
2022-08-10T04:32:41.116Z,2236.00
2022-08-10T04:33:40.870Z,2220.00
2022-08-10T04:34:40.856Z,2212.00
2022-08-10T04:35:40.864Z,2232.00
2022-08-10T04:36:40.842Z,2276.00
2022-08-10T04:37:47.388Z,2316.00
2022-08-10T04:38:40.713Z,2328.00
2022-08-10T04:39:40.771Z,2360.00
2022-08-10T04:40:40.654Z,2420.00
2022-08-10T04:41:46.190Z,2440.00
2022-08-10T04:42:40.595Z,2436.00
2022-08-10T04:43:40.597Z,2484.00
2022-08-10T04:44:40.547Z,2532.00
2022-08-10T04:45:49.613Z,2592.00
2022-08-10T04:46:56.256Z,2636.00
2022-08-10T04:47:57.896Z,2744.00
2022-08-10T04:49:01.559Z,2772.00
2022-08-10T04:49:55.593Z,3076.00
2022-08-10T04:50:40.608Z,3424.00
2022-08-10T04:51:40.424Z,3152.00
2022-08-10T04:52:40.294Z,2868.00
2022-08-10T04:54:05.904Z,2776.00
2022-08-10T04:54:40.225Z,2720.00
2022-08-10T04:55:40.195Z,2716.00
2022-08-10T04:56:40.193Z,2752.00
2022-08-10T04:57:40.133Z,2820.00
2022-08-10T04:58:40.174Z,2872.00
2022-08-10T04:59:40.140Z,2948.00
2022-08-10T05:00:40.176Z,3216.00
2022-08-10T05:02:28.531Z,3900.00
2022-08-10T05:02:40.206Z,4604.00
2022-08-10T05:04:35.285Z,4456.00
2022-08-10T05:04:39.934Z,3756.00
2022-08-10T05:05:40.017Z,3716.00
2022-08-10T05:06:39.881Z,4020.00
2022-08-10T05:07:48.086Z,4352.00
2022-08-10T05:08:39.811Z,4812.00
2022-08-10T05:10:02.648Z,5424.00
2022-08-10T05:10:39.747Z,5400.00
2022-08-10T05:11:39.794Z,4476.00
2022-08-10T05:12:39.750Z,3372.00
2022-08-10T05:13:39.653Z,3248.00
2022-08-10T05:14:39.623Z,3300.00
2022-08-10T05:15:39.589Z,3364.00
2022-08-10T05:16:39.554Z,3420.00
2022-08-10T05:17:39.598Z,3488.00
2022-08-10T05:18:39.495Z,3564.00
2022-08-10T05:20:04.848Z,3656.00
2022-08-10T05:20:39.442Z,3736.00
2022-08-10T05:21:56.391Z,3820.00
2022-08-10T05:22:40.054Z,3940.00
2022-08-10T05:23:39.348Z,4012.00
2022-08-10T05:24:39.317Z,4016.00
2022-08-10T05:25:39.284Z,4008.00
2022-08-10T05:26:55.196Z,4032.00
2022-08-10T05:27:39.225Z,4088.00
2022-08-10T05:28:39.349Z,4144.00
2022-08-10T05:29:39.164Z,4192.00
2022-08-10T05:30:39.137Z,4248.00
2022-08-10T05:31:39.105Z,4288.00
2022-08-10T05:32:56.913Z,4384.00
2022-08-10T05:33:39.056Z,4416.00
2022-08-10T05:34:39.089Z,4464.00
2022-08-10T05:35:51.926Z,4716.00
2022-08-10T05:36:38.954Z,4836.00
2022-08-10T05:38:10.859Z,4700.00
2022-08-10T05:38:38.891Z,4684.00
2022-08-10T05:39:38.950Z,4616.00
2022-08-10T05:40:38.887Z,4616.00
2022-08-10T05:41:42.880Z,4604.00
2022-08-10T05:42:38.825Z,4552.00
2022-08-10T05:43:38.743Z,4504.00
2022-08-10T05:44:38.709Z,4444.00
2022-08-10T05:46:15.969Z,4332.00
2022-08-10T05:46:38.655Z,4208.00
2022-08-10T05:48:54.222Z,4012.00
2022-08-10T05:48:57.174Z,3788.00
2022-08-10T05:49:38.561Z,3648.00
2022-08-10T05:50:38.598Z,3564.00
2022-08-10T05:51:38.592Z,3480.00
2022-08-10T05:52:38.551Z,3472.00
2022-08-10T05:54:02.863Z,3452.00
2022-08-10T05:54:46.141Z,3464.00
2022-08-10T05:55:38.437Z,3512.00
2022-08-10T05:56:54.328Z,3560.00
2022-08-10T05:57:38.331Z,3588.00
2022-08-10T05:58:38.294Z,3592.00
2022-08-10T06:00:33.640Z,3628.00
2022-08-10T06:00:42.916Z,3640.00
2022-08-10T06:01:38.312Z,3644.00
2022-08-10T06:02:38.185Z,3684.00
2022-08-10T06:03:38.155Z,3696.00
2022-08-10T06:04:38.117Z,3700.00
2022-08-10T06:05:38.089Z,3664.00
2022-08-10T06:06:38.117Z,3624.00
2022-08-10T06:07:38.286Z,3640.00
2022-08-10T06:08:38.005Z,3656.00
2022-08-10T06:09:37.975Z,3664.00
2022-08-10T06:10:38.958Z,3672.00
2022-08-10T06:12:24.611Z,3688.00
2022-08-10T06:12:55.381Z,3708.00
2022-08-10T06:13:59.750Z,3720.00
2022-08-10T06:14:38.186Z,3724.00
2022-08-10T06:15:51.440Z,3736.00
2022-08-10T06:16:37.769Z,3748.00
2022-08-10T06:17:37.809Z,3752.00
2022-08-10T06:18:37.706Z,3676.00
2022-08-10T06:19:37.677Z,3696.00
2022-08-10T06:20:37.649Z,3736.00
2022-08-10T06:21:37.618Z,3760.00
2022-08-10T06:22:37.894Z,3768.00
2022-08-10T06:23:37.620Z,3792.00
2022-08-10T06:24:43.154Z,3824.00
2022-08-10T06:26:11.934Z,3828.00
2022-08-10T06:26:37.474Z,3844.00
2022-08-10T06:27:37.510Z,3848.00
2022-08-10T06:28:37.415Z,3848.00
2022-08-10T06:29:37.384Z,3848.00
2022-08-10T06:30:37.363Z,3852.00
2022-08-10T06:31:47.931Z,3880.00
2022-08-10T06:32:37.357Z,3892.00
2022-08-10T06:33:37.388Z,3856.00
2022-08-10T06:34:37.247Z,3780.00
2022-08-10T06:35:37.226Z,3848.00
2022-08-10T06:36:37.193Z,3824.00
2022-08-10T06:37:37.156Z,3756.00
2022-08-10T06:38:37.154Z,3736.00
2022-08-10T06:39:37.373Z,3788.00
2022-08-10T06:40:37.181Z,3868.00
2022-08-10T06:42:14.321Z,3876.00
2022-08-10T06:42:37.240Z,3816.00
2022-08-10T06:43:37.009Z,3728.00
2022-08-10T06:44:37.010Z,4004.00
2022-08-10T06:45:37.019Z,4060.00
2022-08-10T06:46:36.931Z,4056.00
2022-08-10T06:47:36.915Z,4060.00
2022-08-10T06:48:36.912Z,4020.00
2022-08-10T06:49:36.815Z,4016.00
2022-08-10T06:50:56.265Z,3996.00
2022-08-10T06:51:36.818Z,4036.00
2022-08-10T06:52:37.875Z,4076.00
2022-08-10T06:53:52.347Z,4092.00
2022-08-10T06:54:36.672Z,4004.00
2022-08-10T06:55:49.877Z,4044.00
2022-08-10T06:56:43.699Z,4068.00
2022-08-10T06:57:36.608Z,4060.00
2022-08-10T06:58:36.562Z,4036.00
2022-08-10T06:59:36.947Z,4012.00
2022-08-10T07:00:36.756Z,3996.00
2022-08-10T07:01:36.481Z,3980.00
2022-08-10T07:02:36.561Z,4016.00
2022-08-10T07:03:36.418Z,4036.00
2022-08-10T07:04:36.398Z,4108.00
2022-08-10T07:05:36.356Z,4164.00
2022-08-10T07:06:36.692Z,4204.00
2022-08-10T07:07:36.299Z,4272.00
2022-08-10T07:08:36.298Z,4308.00
2022-08-10T07:09:36.252Z,4328.00
2022-08-10T07:10:41.074Z,4356.00
2022-08-10T07:11:36.193Z,4368.00
2022-08-10T07:12:36.415Z,4344.00
2022-08-10T07:14:17.163Z,4304.00
2022-08-10T07:14:36.107Z,4256.00
2022-08-10T07:15:59.660Z,4176.00
2022-08-10T07:16:36.057Z,4044.00
2022-08-10T07:17:39.523Z,3912.00
2022-08-10T07:18:36.002Z,3788.00
2022-08-10T07:19:35.969Z,3684.00
2022-08-10T07:20:35.940Z,3656.00
2022-08-10T07:21:35.917Z,3636.00
2022-08-10T07:23:08.276Z,3648.00
2022-08-10T07:23:57.442Z,3684.00
2022-08-10T07:24:35.832Z,3716.00
2022-08-10T07:25:35.815Z,3756.00
2022-08-10T07:26:35.774Z,3804.00
2022-08-10T07:27:58.218Z,3896.00
2022-08-10T07:28:35.723Z,3968.00
2022-08-10T07:29:54.449Z,4048.00
2022-08-10T07:30:35.666Z,4100.00
2022-08-10T07:31:55.442Z,4104.00
2022-08-10T07:32:35.700Z,4100.00
2022-08-10T07:33:35.636Z,4096.00
2022-08-10T07:34:35.603Z,4116.00
2022-08-10T07:35:43.121Z,4160.00
2022-08-10T07:36:35.503Z,4196.00
2022-08-10T07:37:35.473Z,4344.00
2022-08-10T07:38:35.546Z,4496.00
2022-08-10T07:39:57.920Z,4656.00
2022-08-10T07:40:35.514Z,4800.00
2022-08-10T07:41:35.400Z,4952.00
2022-08-10T07:42:35.464Z,5084.00
2022-08-10T07:43:35.311Z,5096.00
2022-08-10T07:44:35.284Z,5044.00
2022-08-10T07:45:36.171Z,4992.00
2022-08-10T07:46:35.231Z,4988.00
2022-08-10T07:47:53.334Z,5020.00
2022-08-10T07:48:35.299Z,5060.00
2022-08-10T07:49:35.151Z,5144.00
2022-08-10T07:50:35.474Z,5188.00
2022-08-10T07:51:35.101Z,5148.00
2022-08-10T07:52:35.832Z,5068.00
2022-08-10T07:53:35.044Z,5000.00
2022-08-10T07:54:35.014Z,4916.00
2022-08-10T07:56:05.362Z,4808.00
2022-08-10T07:56:48.433Z,4716.00
2022-08-10T07:57:39.992Z,4648.00
2022-08-10T07:58:34.966Z,4572.00
2022-08-10T07:59:34.886Z,4428.00
2022-08-10T08:00:34.860Z,4260.00
2022-08-10T08:01:35.002Z,4108.00
2022-08-10T08:02:35.817Z,3960.00
2022-08-10T08:03:34.779Z,3828.00
2022-08-10T08:04:34.796Z,3712.00
2022-08-10T08:05:58.389Z,3616.00
2022-08-10T08:06:34.700Z,3552.00
2022-08-10T08:07:34.720Z,3492.00
2022-08-10T08:08:34.655Z,3448.00
2022-08-10T08:09:34.617Z,3440.00
2022-08-10T08:10:34.588Z,3444.00
2022-08-10T08:11:34.589Z,3432.00
2022-08-10T08:12:36.984Z,3420.00
2022-08-10T08:13:34.520Z,3416.00
2022-08-10T08:14:34.486Z,3424.00
2022-08-10T08:16:17.498Z,3420.00
2022-08-10T08:16:34.434Z,3428.00
2022-08-10T08:17:35.670Z,3416.00
2022-08-10T08:18:36.952Z,3400.00
2022-08-10T08:19:35.840Z,3396.00
2022-08-10T08:20:34.326Z,3396.00
2022-08-10T08:24:04.545Z,3432.00
2022-08-10T08:24:04.585Z,3408.00
2022-08-10T08:24:09.793Z,3416.00
2022-08-10T08:24:34.698Z,3432.00
2022-08-10T08:25:34.201Z,3444.00
2022-08-10T08:26:34.170Z,3448.00
2022-08-10T08:27:34.145Z,3460.00
2022-08-10T08:28:34.142Z,3480.00
2022-08-10T08:29:34.277Z,3504.00
2022-08-10T08:30:34.071Z,3508.00
2022-08-10T08:31:34.066Z,3504.00
2022-08-10T08:32:34.026Z,3464.00
2022-08-10T08:33:41.163Z,3416.00
2022-08-10T08:34:33.963Z,3400.00
2022-08-10T08:35:33.990Z,3388.00
2022-08-10T08:36:33.906Z,3384.00
2022-08-10T08:38:29.470Z,3380.00
2022-08-10T08:38:34.870Z,3380.00
2022-08-10T08:39:33.905Z,3380.00
2022-08-10T08:40:33.859Z,3372.00
2022-08-10T08:41:33.823Z,3356.00
2022-08-10T08:42:33.755Z,3352.00
2022-08-10T08:43:33.826Z,3352.00
2022-08-10T08:44:34.985Z,3348.00
2022-08-10T08:45:33.736Z,3332.00
2022-08-10T08:46:33.646Z,3320.00
2022-08-10T08:48:03.678Z,3308.00
2022-08-10T08:48:33.595Z,3308.00
2022-08-10T08:50:07.830Z,3308.00
2022-08-10T08:50:33.596Z,3312.00
2022-08-10T08:52:11.332Z,3316.00
2022-08-10T08:52:33.495Z,3316.00
2022-08-10T08:54:03.352Z,3320.00
2022-08-10T08:54:33.444Z,3324.00
2022-08-10T08:56:03.721Z,3320.00
2022-08-10T08:56:33.578Z,3304.00
2022-08-10T08:57:50.049Z,3292.00
2022-08-10T08:58:33.355Z,3296.00
2022-08-10T08:59:33.369Z,3296.00
2022-08-10T09:00:33.294Z,3304.00
2022-08-10T09:01:38.021Z,3316.00
2022-08-10T09:02:33.388Z,3324.00
2022-08-10T09:03:33.207Z,3324.00
2022-08-10T09:04:33.193Z,3328.00
2022-08-10T09:05:58.661Z,3340.00
2022-08-10T09:06:33.127Z,3340.00
2022-08-10T09:07:59.581Z,3340.00
2022-08-10T09:08:33.081Z,3340.00
2022-08-10T09:09:33.053Z,3340.00
2022-08-10T09:10:37.384Z,3336.00
2022-08-10T09:11:33.037Z,3324.00
2022-08-10T09:12:33.701Z,3308.00
2022-08-10T09:13:33.150Z,3300.00
2022-08-10T09:14:32.920Z,3288.00
2022-08-10T09:15:40.976Z,3284.00
2022-08-10T09:16:32.904Z,3292.00
2022-08-10T09:17:32.849Z,3308.00
2022-08-10T09:18:32.821Z,3308.00
2022-08-10T09:19:35.540Z,3312.00
2022-08-10T09:20:32.777Z,3308.00
2022-08-10T09:21:55.202Z,3308.00
2022-08-10T09:22:32.734Z,3304.00
2022-08-10T09:24:05.154Z,3308.00
2022-08-10T09:24:32.808Z,3308.00
2022-08-10T09:25:32.643Z,3316.00
2022-08-10T09:26:32.622Z,3328.00
2022-08-10T09:27:33.045Z,3336.00
2022-08-10T09:28:32.569Z,3348.00
2022-08-10T09:29:32.544Z,3348.00
2022-08-10T09:30:35.757Z,3348.00
2022-08-10T09:31:32.492Z,3348.00
2022-08-10T09:36:14.520Z,3356.00
2022-08-10T09:36:26.782Z,3352.00
2022-08-10T09:36:27.004Z,3356.00
2022-08-10T09:36:27.606Z,3356.00
2022-08-10T09:36:33.778Z,3348.00
2022-08-10T09:37:58.731Z,3352.00
2022-08-10T09:38:32.317Z,3336.00
2022-08-10T09:40:12.725Z,3340.00
2022-08-10T09:41:00.607Z,3332.00
2022-08-10T09:41:32.310Z,3320.00
2022-08-10T09:42:32.278Z,3316.00
2022-08-10T09:43:32.181Z,3312.00
2022-08-10T09:44:32.173Z,3320.00
2022-08-10T09:45:32.154Z,3324.00
2022-08-10T09:46:32.212Z,3328.00
2022-08-10T09:48:01.442Z,3328.00
2022-08-10T09:48:32.062Z,3328.00
2022-08-10T09:49:53.991Z,3328.00
2022-08-10T09:50:55.709Z,3328.00
2022-08-10T09:51:45.289Z,3324.00
2022-08-10T09:52:32.089Z,3320.00
2022-08-10T09:53:31.963Z,3328.00
2022-08-10T09:54:31.904Z,3332.00
2022-08-10T09:56:17.716Z,3332.00
2022-08-10T09:56:31.864Z,3332.00
2022-08-10T09:57:54.835Z,3332.00
2022-08-10T09:58:31.809Z,3332.00
2022-08-10T10:00:00.585Z,3328.00
2022-08-10T10:00:31.793Z,3324.00
2022-08-10T10:02:03.506Z,3320.00
2022-08-10T10:02:31.706Z,3320.00
2022-08-10T10:03:31.959Z,3312.00
2022-08-10T10:04:31.669Z,3312.00
2022-08-10T10:05:31.635Z,3308.00
2022-08-10T10:06:31.609Z,3312.00
2022-08-10T10:07:31.589Z,3316.00
2022-08-10T10:08:31.615Z,3312.00
2022-08-10T10:09:31.530Z,3316.00
2022-08-10T10:10:31.522Z,3316.00
2022-08-10T10:11:31.503Z,3312.00
2022-08-10T10:12:31.464Z,3308.00
2022-08-10T10:13:52.709Z,3308.00
2022-08-10T10:14:31.413Z,3312.00
2022-08-10T10:15:31.385Z,3316.00
2022-08-10T10:16:31.366Z,3316.00
2022-08-10T10:17:31.417Z,3324.00
2022-08-10T10:18:31.412Z,3328.00
2022-08-10T10:19:31.289Z,3332.00
2022-08-10T10:20:31.268Z,3336.00
2022-08-10T10:21:54.792Z,3336.00
2022-08-10T10:22:31.210Z,3340.00
2022-08-10T10:23:31.193Z,3340.00
2022-08-10T10:24:31.253Z,3332.00
2022-08-10T10:25:50.382Z,3336.00
2022-08-10T10:26:31.113Z,3336.00
2022-08-10T10:27:31.101Z,3328.00
2022-08-10T10:28:50.127Z,3320.00
2022-08-10T10:29:58.518Z,3324.00
2022-08-10T10:30:31.074Z,3324.00
2022-08-10T10:31:30.992Z,3324.00
2022-08-10T10:32:34.783Z,3320.00
2022-08-10T10:33:30.948Z,3320.00
2022-08-10T10:34:31.019Z,3320.00
2022-08-10T10:35:30.970Z,3320.00
2022-08-10T10:36:30.888Z,3320.00
2022-08-10T10:38:00.959Z,3316.00
2022-08-10T10:38:30.832Z,3320.00
2022-08-10T10:39:30.851Z,3316.00
2022-08-10T10:40:30.829Z,3320.00
2022-08-10T10:41:30.760Z,3328.00
2022-08-10T10:42:44.806Z,3328.00
2022-08-10T10:43:30.701Z,3328.00
2022-08-10T10:44:30.803Z,3336.00
2022-08-10T10:45:30.669Z,3340.00
2022-08-10T10:46:30.704Z,3340.00
2022-08-10T10:47:30.605Z,3340.00
2022-08-10T10:48:30.653Z,3344.00
2022-08-10T10:49:30.569Z,3348.00
2022-08-10T10:50:30.534Z,3352.00
2022-08-10T10:51:30.565Z,3352.00
2022-08-10T10:52:30.493Z,3352.00
2022-08-10T10:53:30.480Z,3356.00
2022-08-10T10:54:30.510Z,3352.00
2022-08-10T10:55:30.413Z,3348.00
2022-08-10T10:56:30.443Z,3344.00
2022-08-10T10:57:59.824Z,3336.00
2022-08-10T10:58:30.414Z,3340.00
2022-08-10T10:59:54.936Z,3336.00
2022-08-10T11:00:30.301Z,3332.00
2022-08-10T11:01:30.410Z,3340.00
2022-08-10T11:02:30.287Z,3340.00
2022-08-10T11:03:30.220Z,3340.00
2022-08-10T11:04:30.201Z,3336.00
2022-08-10T11:05:30.183Z,3340.00
2022-08-10T11:06:39.804Z,3340.00
2022-08-10T11:07:31.804Z,3340.00
2022-08-10T11:08:30.118Z,3336.00
2022-08-10T11:10:07.018Z,3340.00
2022-08-10T11:10:32.710Z,3344.00
2022-08-10T11:12:01.346Z,3344.00
2022-08-10T11:12:30.070Z,3344.00
2022-08-10T11:14:24.801Z,3336.00
2022-08-10T11:14:29.984Z,3340.00
2022-08-10T11:15:29.944Z,3332.00
2022-08-10T11:16:29.908Z,3332.00
2022-08-10T11:17:29.958Z,3332.00
2022-08-10T11:18:29.867Z,3328.00
2022-08-10T11:20:00.309Z,3328.00
2022-08-10T11:20:29.819Z,3324.00
2022-08-10T11:21:29.802Z,3328.00
2022-08-10T11:22:29.763Z,3328.00
2022-08-10T11:23:29.811Z,3328.00
2022-08-10T11:24:47.172Z,3328.00
2022-08-10T11:25:29.695Z,3328.00
2022-08-10T11:26:29.681Z,3328.00
2022-08-10T11:27:29.644Z,3324.00
2022-08-10T11:28:29.689Z,3324.00
2022-08-10T11:29:29.607Z,3324.00
2022-08-10T11:30:29.577Z,3324.00
2022-08-10T11:31:29.559Z,3324.00
2022-08-10T11:32:29.538Z,3324.00
2022-08-10T11:33:32.611Z,3328.00
2022-08-10T11:34:48.170Z,3332.00
2022-08-10T11:35:34.155Z,3328.00
2022-08-10T11:36:29.436Z,3332.00
2022-08-10T11:37:29.414Z,3332.00
2022-08-10T11:38:37.040Z,3328.00
2022-08-10T11:39:29.485Z,3324.00
2022-08-10T11:40:29.472Z,3324.00
2022-08-10T11:42:09.256Z,3328.00
2022-08-10T11:42:35.658Z,3332.00
2022-08-10T11:43:29.269Z,3332.00
2022-08-10T11:44:29.248Z,3332.00
2022-08-10T11:45:29.282Z,3332.00
2022-08-10T11:46:29.344Z,3328.00
2022-08-10T11:47:29.173Z,3332.00
2022-08-10T11:48:54.129Z,3324.00
2022-08-10T11:49:29.130Z,3320.00
2022-08-10T11:50:29.157Z,3324.00
2022-08-10T11:51:29.078Z,3324.00
2022-08-10T11:52:29.135Z,3324.00
2022-08-10T11:53:38.781Z,3324.00
2022-08-10T11:54:29.023Z,3320.00
2022-08-10T11:55:36.098Z,3320.00
2022-08-10T11:56:28.967Z,3324.00
2022-08-10T11:57:53.319Z,3320.00
2022-08-10T11:58:28.969Z,3324.00
2022-08-10T11:59:28.881Z,3324.00
2022-08-10T12:00:29.593Z,3324.00
2022-08-10T12:01:28.881Z,3328.00
2022-08-10T12:02:28.998Z,3332.00
2022-08-10T12:03:34.039Z,3332.00
2022-08-10T12:04:28.765Z,3336.00
2022-08-10T12:05:53.750Z,3336.00
2022-08-10T12:06:53.601Z,3336.00
2022-08-10T12:10:01.987Z,3344.00
2022-08-10T12:10:06.461Z,3344.00
2022-08-10T12:10:08.577Z,3344.00
2022-08-10T12:10:28.622Z,3356.00
2022-08-10T12:11:28.654Z,3352.00
2022-08-10T12:12:28.581Z,3360.00
2022-08-10T12:13:28.555Z,3360.00
2022-08-10T12:14:28.551Z,3356.00
2022-08-10T12:15:28.508Z,3388.00
2022-08-10T12:16:28.598Z,3488.00
2022-08-10T12:17:28.459Z,3472.00
2022-08-10T12:18:28.435Z,3460.00
2022-08-10T12:19:28.417Z,3436.00
2022-08-10T12:20:28.387Z,3380.00
2022-08-10T12:21:28.364Z,3356.00
2022-08-10T12:22:28.424Z,3356.00
2022-08-10T12:23:28.320Z,3348.00
2022-08-10T12:24:28.298Z,3344.00
2022-08-10T12:25:57.679Z,3348.00